sensor_id;sensor_type;location;lat;lon;timestamp;P1;durP1;ratioP1;P2;durP2;ratioP2
76447;SDS011;65284;51.040;13.722;2024-03-17T00:01:44;6.38;;;2.15;;
76447;SDS011;65284;51.040;13.722;2024-03-17T00:04:09;6.10;;;1.90;;
76447;SDS011;65284;51.040;13.722;2024-03-17T00:06:34;5.53;;;2.10;;
76447;SDS011;65284;51.040;13.722;2024-03-17T00:09:00;7.40;;;2.30;;
76447;SDS011;65284;51.040;13.722;2024-03-17T00:11:32;4.75;;;1.90;;
76447;SDS011;65284;51.040;13.722;2024-03-17T00:14:00;5.20;;;2.00;;
76447;SDS011;65284;51.040;13.722;2024-03-17T00:16:26;7.50;;;2.30;;
76447;SDS011;65284;51.040;13.722;2024-03-17T00:18:52;4.47;;;1.90;;
76447;SDS011;65284;51.040;13.722;2024-03-17T00:21:18;4.97;;;2.00;;
76447;SDS011;65284;51.040;13.722;2024-03-17T00:23:47;6.93;;;1.83;;
76447;SDS011;65284;51.040;13.722;2024-03-17T00:26:14;5.40;;;2.10;;
76447;SDS011;65284;51.040;13.722;2024-03-17T00:28:40;4.45;;;2.20;;
76447;SDS011;65284;51.040;13.722;2024-03-17T00:31:07;6.40;;;1.92;;
76447;SDS011;65284;51.040;13.722;2024-03-17T00:33:35;5.72;;;2.25;;
76447;SDS011;65284;51.040;13.722;2024-03-17T00:36:01;9.88;;;2.05;;
76447;SDS011;65284;51.040;13.722;2024-03-17T00:38:26;8.30;;;2.15;;
76447;SDS011;65284;51.040;13.722;2024-03-17T00:40:52;4.60;;;1.90;;
76447;SDS011;65284;51.040;13.722;2024-03-17T00:43:18;8.13;;;2.45;;
76447;SDS011;65284;51.040;13.722;2024-03-17T00:45:43;6.80;;;2.25;;
76447;SDS011;65284;51.040;13.722;2024-03-17T00:48:09;5.30;;;2.08;;
76447;SDS011;65284;51.040;13.722;2024-03-17T00:50:34;8.32;;;2.20;;
76447;SDS011;65284;51.040;13.722;2024-03-17T00:53:00;5.40;;;2.03;;
76447;SDS011;65284;51.040;13.722;2024-03-17T00:55:28;6.75;;;2.28;;
76447;SDS011;65284;51.040;13.722;2024-03-17T00:57:53;6.57;;;1.92;;
76447;SDS011;65284;51.040;13.722;2024-03-17T01:00:19;5.70;;;2.10;;
76447;SDS011;65284;51.040;13.722;2024-03-17T01:02:45;5.70;;;2.20;;
76447;SDS011;65284;51.040;13.722;2024-03-17T01:05:11;5.82;;;2.10;;
76447;SDS011;65284;51.040;13.722;2024-03-17T01:07:36;6.20;;;2.00;;
76447;SDS011;65284;51.040;13.722;2024-03-17T01:10:02;6.10;;;2.17;;
76447;SDS011;65284;51.040;13.722;2024-03-17T01:12:28;8.57;;;2.30;;
76447;SDS011;65284;51.040;13.722;2024-03-17T01:14:53;7.13;;;2.05;;
76447;SDS011;65284;51.040;13.722;2024-03-17T01:17:19;4.25;;;1.75;;
76447;SDS011;65284;51.040;13.722;2024-03-17T01:19:44;7.05;;;2.55;;
76447;SDS011;65284;51.040;13.722;2024-03-17T01:22:10;7.47;;;2.20;;
76447;SDS011;65284;51.040;13.722;2024-03-17T01:24:36;11.93;;;2.78;;
76447;SDS011;65284;51.040;13.722;2024-03-17T01:27:02;7.38;;;2.28;;
76447;SDS011;65284;51.040;13.722;2024-03-17T01:29:28;4.78;;;1.90;;
76447;SDS011;65284;51.040;13.722;2024-03-17T01:31:53;5.93;;;2.42;;
76447;SDS011;65284;51.040;13.722;2024-03-17T01:34:19;8.02;;;2.22;;
76447;SDS011;65284;51.040;13.722;2024-03-17T01:36:45;7.03;;;2.00;;
76447;SDS011;65284;51.040;13.722;2024-03-17T01:39:10;5.32;;;2.20;;
76447;SDS011;65284;51.040;13.722;2024-03-17T01:41:36;8.25;;;2.20;;
76447;SDS011;65284;51.040;13.722;2024-03-17T01:44:02;5.85;;;2.22;;
76447;SDS011;65284;51.040;13.722;2024-03-17T01:46:27;5.57;;;2.10;;
76447;SDS011;65284;51.040;13.722;2024-03-17T01:48:53;6.85;;;2.05;;
76447;SDS011;65284;51.040;13.722;2024-03-17T01:51:19;6.53;;;2.40;;
76447;SDS011;65284;51.040;13.722;2024-03-17T01:53:46;5.97;;;2.15;;
76447;SDS011;65284;51.040;13.722;2024-03-17T01:56:12;5.68;;;2.00;;
76447;SDS011;65284;51.040;13.722;2024-03-17T01:58:39;6.35;;;2.35;;
76447;SDS011;65284;51.040;13.722;2024-03-17T02:01:09;6.05;;;2.28;;
76447;SDS011;65284;51.040;13.722;2024-03-17T02:03:35;5.28;;;2.15;;
76447;SDS011;65284;51.040;13.722;2024-03-17T02:06:00;6.78;;;2.22;;
76447;SDS011;65284;51.040;13.722;2024-03-17T02:08:26;4.78;;;2.22;;
76447;SDS011;65284;51.040;13.722;2024-03-17T02:10:52;5.35;;;1.95;;
76447;SDS011;65284;51.040;13.722;2024-03-17T02:13:19;6.32;;;2.40;;
76447;SDS011;65284;51.040;13.722;2024-03-17T02:15:46;6.50;;;2.10;;
76447;SDS011;65284;51.040;13.722;2024-03-17T02:18:12;7.45;;;2.50;;
76447;SDS011;65284;51.040;13.722;2024-03-17T02:20:38;6.28;;;1.90;;
76447;SDS011;65284;51.040;13.722;2024-03-17T02:23:25;6.35;;;2.50;;
76447;SDS011;65284;51.040;13.722;2024-03-17T02:25:52;5.88;;;2.15;;
76447;SDS011;65284;51.040;13.722;2024-03-17T02:28:17;8.30;;;2.40;;
76447;SDS011;65284;51.040;13.722;2024-03-17T02:30:44;6.88;;;2.22;;
76447;SDS011;65284;51.040;13.722;2024-03-17T02:33:09;8.02;;;2.22;;
76447;SDS011;65284;51.040;13.722;2024-03-17T02:35:35;6.38;;;2.60;;
76447;SDS011;65284;51.040;13.722;2024-03-17T02:38:01;5.65;;;2.30;;
76447;SDS011;65284;51.040;13.722;2024-03-17T02:40:27;6.22;;;2.30;;
76447;SDS011;65284;51.040;13.722;2024-03-17T02:42:54;5.65;;;2.30;;
76447;SDS011;65284;51.040;13.722;2024-03-17T02:45:19;4.95;;;2.50;;
76447;SDS011;65284;51.040;13.722;2024-03-17T02:47:46;6.60;;;2.15;;
76447;SDS011;65284;51.040;13.722;2024-03-17T02:50:11;5.93;;;2.35;;
76447;SDS011;65284;51.040;13.722;2024-03-17T02:52:37;6.05;;;2.17;;
76447;SDS011;65284;51.040;13.722;2024-03-17T02:55:02;6.35;;;2.17;;
76447;SDS011;65284;51.040;13.722;2024-03-17T02:57:28;6.65;;;2.70;;
76447;SDS011;65284;51.040;13.722;2024-03-17T02:59:58;6.97;;;2.40;;
76447;SDS011;65284;51.040;13.722;2024-03-17T03:02:24;6.65;;;2.35;;
76447;SDS011;65284;51.040;13.722;2024-03-17T03:04:49;9.13;;;2.60;;
76447;SDS011;65284;51.040;13.722;2024-03-17T03:07:15;8.25;;;2.40;;
76447;SDS011;65284;51.040;13.722;2024-03-17T03:09:41;8.13;;;2.50;;
76447;SDS011;65284;51.040;13.722;2024-03-17T03:12:07;7.05;;;2.30;;
76447;SDS011;65284;51.040;13.722;2024-03-17T03:14:32;7.22;;;2.40;;
76447;SDS011;65284;51.040;13.722;2024-03-17T03:16:58;7.90;;;2.58;;
76447;SDS011;65284;51.040;13.722;2024-03-17T03:19:24;6.85;;;2.67;;
76447;SDS011;65284;51.040;13.722;2024-03-17T03:21:49;6.97;;;2.40;;
76447;SDS011;65284;51.040;13.722;2024-03-17T03:24:15;7.53;;;2.30;;
76447;SDS011;65284;51.040;13.722;2024-03-17T03:26:41;6.00;;;2.60;;
76447;SDS011;65284;51.040;13.722;2024-03-17T03:29:07;7.75;;;2.60;;
76447;SDS011;65284;51.040;13.722;2024-03-17T03:31:33;7.68;;;2.45;;
76447;SDS011;65284;51.040;13.722;2024-03-17T03:33:58;9.88;;;2.70;;
76447;SDS011;65284;51.040;13.722;2024-03-17T03:36:26;7.18;;;2.50;;
76447;SDS011;65284;51.040;13.722;2024-03-17T03:38:52;8.52;;;2.40;;
76447;SDS011;65284;51.040;13.722;2024-03-17T03:41:18;8.82;;;2.40;;
76447;SDS011;65284;51.040;13.722;2024-03-17T03:43:44;9.65;;;2.80;;
76447;SDS011;65284;51.040;13.722;2024-03-17T03:46:11;7.20;;;2.35;;
76447;SDS011;65284;51.040;13.722;2024-03-17T03:48:37;7.82;;;2.70;;
76447;SDS011;65284;51.040;13.722;2024-03-17T03:51:03;6.40;;;2.40;;
76447;SDS011;65284;51.040;13.722;2024-03-17T03:53:35;6.00;;;2.45;;
76447;SDS011;65284;51.040;13.722;2024-03-17T03:56:05;6.82;;;2.55;;
76447;SDS011;65284;51.040;13.722;2024-03-17T03:58:34;7.32;;;2.50;;
76447;SDS011;65284;51.040;13.722;2024-03-17T04:01:04;6.82;;;2.60;;
76447;SDS011;65284;51.040;13.722;2024-03-17T04:03:31;6.80;;;2.50;;
76447;SDS011;65284;51.040;13.722;2024-03-17T04:06:04;7.25;;;2.55;;
76447;SDS011;65284;51.040;13.722;2024-03-17T04:08:32;8.30;;;2.53;;
76447;SDS011;65284;51.040;13.722;2024-03-17T04:10:58;8.48;;;2.42;;
76447;SDS011;65284;51.040;13.722;2024-03-17T04:13:23;7.72;;;2.40;;
76447;SDS011;65284;51.040;13.722;2024-03-17T04:15:49;6.22;;;2.33;;
76447;SDS011;65284;51.040;13.722;2024-03-17T04:18:15;6.43;;;2.20;;
76447;SDS011;65284;51.040;13.722;2024-03-17T04:20:42;6.72;;;2.40;;
76447;SDS011;65284;51.040;13.722;2024-03-17T04:23:08;6.00;;;2.60;;
76447;SDS011;65284;51.040;13.722;2024-03-17T04:25:33;11.70;;;2.80;;
76447;SDS011;65284;51.040;13.722;2024-03-17T04:27:59;7.38;;;2.70;;
76447;SDS011;65284;51.040;13.722;2024-03-17T04:30:24;8.93;;;2.88;;
76447;SDS011;65284;51.040;13.722;2024-03-17T04:32:50;9.10;;;2.70;;
76447;SDS011;65284;51.040;13.722;2024-03-17T04:35:17;5.88;;;2.50;;
76447;SDS011;65284;51.040;13.722;2024-03-17T04:37:42;7.82;;;2.83;;
76447;SDS011;65284;51.040;13.722;2024-03-17T04:40:08;7.70;;;2.30;;
76447;SDS011;65284;51.040;13.722;2024-03-17T04:42:37;7.68;;;2.25;;
76447;SDS011;65284;51.040;13.722;2024-03-17T04:45:04;6.25;;;2.55;;
76447;SDS011;65284;51.040;13.722;2024-03-17T04:47:31;6.47;;;2.65;;
76447;SDS011;65284;51.040;13.722;2024-03-17T04:49:56;7.15;;;2.60;;
76447;SDS011;65284;51.040;13.722;2024-03-17T04:52:22;5.90;;;2.53;;
76447;SDS011;65284;51.040;13.722;2024-03-17T04:54:47;7.47;;;2.53;;
76447;SDS011;65284;51.040;13.722;2024-03-17T04:57:13;4.85;;;2.20;;
76447;SDS011;65284;51.040;13.722;2024-03-17T04:59:39;6.38;;;2.67;;
76447;SDS011;65284;51.040;13.722;2024-03-17T05:02:04;6.03;;;2.60;;
76447;SDS011;65284;51.040;13.722;2024-03-17T05:04:30;5.18;;;2.40;;
76447;SDS011;65284;51.040;13.722;2024-03-17T05:06:55;7.70;;;2.40;;
76447;SDS011;65284;51.040;13.722;2024-03-17T05:09:21;6.80;;;2.53;;
76447;SDS011;65284;51.040;13.722;2024-03-17T05:11:47;7.32;;;2.40;;
76447;SDS011;65284;51.040;13.722;2024-03-17T05:14:12;9.15;;;3.00;;
76447;SDS011;65284;51.040;13.722;2024-03-17T05:16:38;9.77;;;3.30;;
76447;SDS011;65284;51.040;13.722;2024-03-17T05:19:04;10.50;;;3.03;;
76447;SDS011;65284;51.040;13.722;2024-03-17T05:21:30;7.43;;;2.40;;
76447;SDS011;65284;51.040;13.722;2024-03-17T05:23:56;7.35;;;3.08;;
76447;SDS011;65284;51.040;13.722;2024-03-17T05:26:25;7.50;;;2.67;;
76447;SDS011;65284;51.040;13.722;2024-03-17T05:28:50;10.07;;;3.15;;
76447;SDS011;65284;51.040;13.722;2024-03-17T05:31:16;8.27;;;2.33;;
76447;SDS011;65284;51.040;13.722;2024-03-17T05:33:43;10.20;;;2.72;;
76447;SDS011;65284;51.040;13.722;2024-03-17T05:36:09;9.35;;;2.50;;
76447;SDS011;65284;51.040;13.722;2024-03-17T05:38:35;7.03;;;2.67;;
76447;SDS011;65284;51.040;13.722;2024-03-17T05:41:01;6.20;;;2.33;;
76447;SDS011;65284;51.040;13.722;2024-03-17T05:43:29;7.65;;;2.53;;
76447;SDS011;65284;51.040;13.722;2024-03-17T05:45:59;7.78;;;2.72;;
76447;SDS011;65284;51.040;13.722;2024-03-17T05:48:31;7.38;;;2.80;;
76447;SDS011;65284;51.040;13.722;2024-03-17T05:50:57;7.38;;;2.80;;
76447;SDS011;65284;51.040;13.722;2024-03-17T05:53:23;6.22;;;2.58;;
76447;SDS011;65284;51.040;13.722;2024-03-17T05:55:51;7.03;;;2.70;;
76447;SDS011;65284;51.040;13.722;2024-03-17T05:58:16;7.88;;;2.85;;
76447;SDS011;65284;51.040;13.722;2024-03-17T06:00:42;7.93;;;2.92;;
76447;SDS011;65284;51.040;13.722;2024-03-17T06:03:09;7.03;;;2.60;;
76447;SDS011;65284;51.040;13.722;2024-03-17T06:05:35;7.75;;;2.72;;
76447;SDS011;65284;51.040;13.722;2024-03-17T06:08:03;7.32;;;2.92;;
76447;SDS011;65284;51.040;13.722;2024-03-17T06:10:30;6.50;;;2.75;;
76447;SDS011;65284;51.040;13.722;2024-03-17T06:12:59;7.45;;;2.70;;
76447;SDS011;65284;51.040;13.722;2024-03-17T06:15:25;5.93;;;2.70;;
76447;SDS011;65284;51.040;13.722;2024-03-17T06:21:37;8.77;;;2.50;;
76447;SDS011;65284;51.040;13.722;2024-03-17T06:24:04;7.60;;;2.90;;
76447;SDS011;65284;51.040;13.722;2024-03-17T06:26:31;5.90;;;2.53;;
76447;SDS011;65284;51.040;13.722;2024-03-17T06:29:00;7.13;;;3.08;;
76447;SDS011;65284;51.040;13.722;2024-03-17T06:31:25;7.93;;;2.42;;
76447;SDS011;65284;51.040;13.722;2024-03-17T06:33:51;9.15;;;2.65;;
76447;SDS011;65284;51.040;13.722;2024-03-17T06:36:16;7.68;;;2.55;;
76447;SDS011;65284;51.040;13.722;2024-03-17T06:38:42;8.55;;;2.90;;
76447;SDS011;65284;51.040;13.722;2024-03-17T06:41:09;6.88;;;2.60;;
76447;SDS011;65284;51.040;13.722;2024-03-17T06:43:34;6.50;;;2.47;;
76447;SDS011;65284;51.040;13.722;2024-03-17T06:46:00;10.23;;;2.42;;
76447;SDS011;65284;51.040;13.722;2024-03-17T06:48:27;8.60;;;2.47;;
76447;SDS011;65284;51.040;13.722;2024-03-17T06:50:54;8.27;;;2.70;;
76447;SDS011;65284;51.040;13.722;2024-03-17T06:53:20;7.22;;;2.50;;
76447;SDS011;65284;51.040;13.722;2024-03-17T06:55:53;6.93;;;2.30;;
76447;SDS011;65284;51.040;13.722;2024-03-17T06:58:20;5.82;;;2.30;;
76447;SDS011;65284;51.040;13.722;2024-03-17T07:00:54;8.27;;;2.17;;
76447;SDS011;65284;51.040;13.722;2024-03-17T07:03:27;6.82;;;2.25;;
76447;SDS011;65284;51.040;13.722;2024-03-17T07:05:57;10.90;;;2.00;;
76447;SDS011;65284;51.040;13.722;2024-03-17T07:08:30;7.10;;;2.10;;
76447;SDS011;65284;51.040;13.722;2024-03-17T07:11:00;11.63;;;2.35;;
76447;SDS011;65284;51.040;13.722;2024-03-17T07:13:35;7.75;;;2.35;;
76447;SDS011;65284;51.040;13.722;2024-03-17T07:16:02;7.90;;;2.22;;
76447;SDS011;65284;51.040;13.722;2024-03-17T07:18:28;8.95;;;2.50;;
76447;SDS011;65284;51.040;13.722;2024-03-17T07:21:01;11.20;;;2.17;;
76447;SDS011;65284;51.040;13.722;2024-03-17T07:23:29;8.98;;;2.25;;
76447;SDS011;65284;51.040;13.722;2024-03-17T07:25:55;9.32;;;2.42;;
76447;SDS011;65284;51.040;13.722;2024-03-17T07:28:22;8.57;;;2.40;;
76447;SDS011;65284;51.040;13.722;2024-03-17T07:30:52;7.20;;;2.53;;
76447;SDS011;65284;51.040;13.722;2024-03-17T07:33:19;9.85;;;2.55;;
76447;SDS011;65284;51.040;13.722;2024-03-17T07:36:07;9.20;;;2.17;;
76447;SDS011;65284;51.040;13.722;2024-03-17T07:38:33;9.18;;;2.20;;
76447;SDS011;65284;51.040;13.722;2024-03-17T07:41:04;10.15;;;2.00;;
76447;SDS011;65284;51.040;13.722;2024-03-17T07:43:32;10.55;;;2.28;;
76447;SDS011;65284;51.040;13.722;2024-03-17T07:48:32;11.68;;;2.08;;
76447;SDS011;65284;51.040;13.722;2024-03-17T07:51:00;13.15;;;2.30;;
76447;SDS011;65284;51.040;13.722;2024-03-17T07:53:33;8.23;;;2.05;;
76447;SDS011;65284;51.040;13.722;2024-03-17T07:58:34;7.10;;;2.15;;
76447;SDS011;65284;51.040;13.722;2024-03-17T08:01:03;10.00;;;2.45;;
76447;SDS011;65284;51.040;13.722;2024-03-17T08:03:31;6.85;;;2.17;;
76447;SDS011;65284;51.040;13.722;2024-03-17T08:05:58;9.27;;;2.15;;
76447;SDS011;65284;51.040;13.722;2024-03-17T08:08:24;9.38;;;2.00;;
76447;SDS011;65284;51.040;13.722;2024-03-17T08:10:50;7.78;;;2.00;;
76447;SDS011;65284;51.040;13.722;2024-03-17T08:13:16;8.30;;;2.10;;
76447;SDS011;65284;51.040;13.722;2024-03-17T08:15:42;9.75;;;2.20;;
76447;SDS011;65284;51.040;13.722;2024-03-17T08:18:09;7.72;;;2.38;;
76447;SDS011;65284;51.040;13.722;2024-03-17T08:20:38;11.05;;;1.90;;
76447;SDS011;65284;51.040;13.722;2024-03-17T08:23:04;7.75;;;2.10;;
76447;SDS011;65284;51.040;13.722;2024-03-17T08:25:31;9.30;;;2.08;;
76447;SDS011;65284;51.040;13.722;2024-03-17T08:27:57;9.32;;;2.00;;
76447;SDS011;65284;51.040;13.722;2024-03-17T08:30:22;9.07;;;1.88;;
76447;SDS011;65284;51.040;13.722;2024-03-17T08:32:48;10.55;;;2.40;;
76447;SDS011;65284;51.040;13.722;2024-03-17T08:35:13;7.97;;;1.90;;
76447;SDS011;65284;51.040;13.722;2024-03-17T08:37:40;7.63;;;1.88;;
76447;SDS011;65284;51.040;13.722;2024-03-17T08:40:05;6.57;;;1.90;;
76447;SDS011;65284;51.040;13.722;2024-03-17T08:42:32;8.88;;;1.90;;
76447;SDS011;65284;51.040;13.722;2024-03-17T08:44:57;9.13;;;2.00;;
76447;SDS011;65284;51.040;13.722;2024-03-17T08:47:23;7.90;;;2.17;;
76447;SDS011;65284;51.040;13.722;2024-03-17T08:49:51;7.43;;;1.90;;
76447;SDS011;65284;51.040;13.722;2024-03-17T08:52:17;7.13;;;2.17;;
76447;SDS011;65284;51.040;13.722;2024-03-17T08:54:45;6.28;;;1.42;;
76447;SDS011;65284;51.040;13.722;2024-03-17T08:57:12;9.30;;;1.65;;
76447;SDS011;65284;51.040;13.722;2024-03-17T08:59:37;8.40;;;1.80;;
76447;SDS011;65284;51.040;13.722;2024-03-17T09:02:03;9.07;;;1.75;;
76447;SDS011;65284;51.040;13.722;2024-03-17T09:04:28;10.07;;;1.92;;
76447;SDS011;65284;51.040;13.722;2024-03-17T09:06:54;7.53;;;1.98;;
76447;SDS011;65284;51.040;13.722;2024-03-17T09:09:21;8.40;;;2.10;;
76447;SDS011;65284;51.040;13.722;2024-03-17T09:11:47;8.25;;;2.05;;
76447;SDS011;65284;51.040;13.722;2024-03-17T09:14:13;6.13;;;1.50;;
76447;SDS011;65284;51.040;13.722;2024-03-17T09:16:38;7.78;;;2.20;;
76447;SDS011;65284;51.040;13.722;2024-03-17T09:19:04;7.10;;;1.50;;
76447;SDS011;65284;51.040;13.722;2024-03-17T09:21:29;6.28;;;1.80;;
76447;SDS011;65284;51.040;13.722;2024-03-17T09:23:55;6.47;;;1.70;;
76447;SDS011;65284;51.040;13.722;2024-03-17T09:26:20;7.50;;;2.00;;
76447;SDS011;65284;51.040;13.722;2024-03-17T09:28:46;6.75;;;1.90;;
76447;SDS011;65284;51.040;13.722;2024-03-17T09:31:11;6.50;;;1.90;;
76447;SDS011;65284;51.040;13.722;2024-03-17T09:33:37;5.75;;;1.58;;
76447;SDS011;65284;51.040;13.722;2024-03-17T09:36:07;5.45;;;1.27;;
76447;SDS011;65284;51.040;13.722;2024-03-17T09:38:34;6.47;;;1.38;;
76447;SDS011;65284;51.040;13.722;2024-03-17T09:41:00;7.93;;;1.30;;
76447;SDS011;65284;51.040;13.722;2024-03-17T09:43:27;7.88;;;1.58;;
76447;SDS011;65284;51.040;13.722;2024-03-17T09:45:54;6.03;;;1.40;;
76447;SDS011;65284;51.040;13.722;2024-03-17T09:48:22;4.93;;;1.30;;
76447;SDS011;65284;51.040;13.722;2024-03-17T09:50:50;5.10;;;1.40;;
76447;SDS011;65284;51.040;13.722;2024-03-17T09:53:17;5.20;;;1.40;;
76447;SDS011;65284;51.040;13.722;2024-03-17T09:55:47;6.82;;;1.30;;
76447;SDS011;65284;51.040;13.722;2024-03-17T09:58:16;4.70;;;1.38;;
76447;SDS011;65284;51.040;13.722;2024-03-17T10:00:43;5.85;;;1.20;;
76447;SDS011;65284;51.040;13.722;2024-03-17T10:03:09;4.25;;;1.27;;
76447;SDS011;65284;51.040;13.722;2024-03-17T10:05:34;6.38;;;1.30;;
76447;SDS011;65284;51.040;13.722;2024-03-17T10:08:00;5.78;;;1.20;;
76447;SDS011;65284;51.040;13.722;2024-03-17T10:10:26;7.50;;;1.38;;
76447;SDS011;65284;51.040;13.722;2024-03-17T10:12:52;8.75;;;1.33;;
76447;SDS011;65284;51.040;13.722;2024-03-17T10:15:18;6.07;;;1.05;;
76447;SDS011;65284;51.040;13.722;2024-03-17T10:17:44;7.88;;;1.45;;
76447;SDS011;65284;51.040;13.722;2024-03-17T10:20:13;5.75;;;1.08;;
76447;SDS011;65284;51.040;13.722;2024-03-17T10:22:51;5.40;;;1.10;;
76447;SDS011;65284;51.040;13.722;2024-03-17T10:25:26;5.78;;;1.30;;
76447;SDS011;65284;51.040;13.722;2024-03-17T10:27:55;6.07;;;1.50;;
76447;SDS011;65284;51.040;13.722;2024-03-17T10:30:22;4.93;;;1.08;;
76447;SDS011;65284;51.040;13.722;2024-03-17T10:32:56;6.50;;;1.35;;
76447;SDS011;65284;51.040;13.722;2024-03-17T10:37:56;7.28;;;1.30;;
76447;SDS011;65284;51.040;13.722;2024-03-17T10:40:26;9.48;;;1.40;;
76447;SDS011;65284;51.040;13.722;2024-03-17T10:42:54;5.95;;;1.30;;
76447;SDS011;65284;51.040;13.722;2024-03-17T10:45:21;6.13;;;1.50;;
76447;SDS011;65284;51.040;13.722;2024-03-17T10:47:50;7.13;;;1.30;;
76447;SDS011;65284;51.040;13.722;2024-03-17T10:50:21;7.60;;;1.50;;
76447;SDS011;65284;51.040;13.722;2024-03-17T10:52:52;4.18;;;1.40;;
76447;SDS011;65284;51.040;13.722;2024-03-17T10:55:24;7.47;;;1.67;;
76447;SDS011;65284;51.040;13.722;2024-03-17T10:57:54;6.53;;;1.75;;
76447;SDS011;65284;51.040;13.722;2024-03-17T11:00:23;4.80;;;1.60;;
76447;SDS011;65284;51.040;13.722;2024-03-17T11:02:52;5.65;;;1.45;;
76447;SDS011;65284;51.040;13.722;2024-03-17T11:09:09;4.55;;;1.40;;
76447;SDS011;65284;51.040;13.722;2024-03-17T11:11:39;5.75;;;1.40;;
76447;SDS011;65284;51.040;13.722;2024-03-17T11:14:17;7.00;;;1.45;;
76447;SDS011;65284;51.040;13.722;2024-03-17T11:16:47;6.20;;;1.60;;
76447;SDS011;65284;51.040;13.722;2024-03-17T11:19:16;5.13;;;1.40;;
76447;SDS011;65284;51.040;13.722;2024-03-17T11:21:42;7.43;;;1.70;;
76447;SDS011;65284;51.040;13.722;2024-03-17T11:24:18;7.30;;;1.95;;
76447;SDS011;65284;51.040;13.722;2024-03-17T11:26:45;6.97;;;2.03;;
76447;SDS011;65284;51.040;13.722;2024-03-17T11:29:29;6.88;;;1.90;;
76447;SDS011;65284;51.040;13.722;2024-03-17T11:31:55;8.07;;;2.03;;
76447;SDS011;65284;51.040;13.722;2024-03-17T11:36:59;8.77;;;2.10;;
76447;SDS011;65284;51.040;13.722;2024-03-17T11:42:12;6.32;;;1.75;;
76447;SDS011;65284;51.040;13.722;2024-03-17T11:44:41;7.53;;;1.75;;
76447;SDS011;65284;51.040;13.722;2024-03-17T11:47:08;4.95;;;2.10;;
76447;SDS011;65284;51.040;13.722;2024-03-17T11:49:34;8.60;;;1.73;;
76447;SDS011;65284;51.040;13.722;2024-03-17T11:52:05;6.32;;;1.98;;
76447;SDS011;65284;51.040;13.722;2024-03-17T11:54:35;6.82;;;1.80;;
76447;SDS011;65284;51.040;13.722;2024-03-17T11:59:29;5.18;;;1.70;;
76447;SDS011;65284;51.040;13.722;2024-03-17T12:01:54;4.43;;;1.50;;
76447;SDS011;65284;51.040;13.722;2024-03-17T12:04:21;8.50;;;2.30;;
76447;SDS011;65284;51.040;13.722;2024-03-17T12:12:00;6.20;;;1.95;;
76447;SDS011;65284;51.040;13.722;2024-03-17T12:14:27;5.05;;;1.90;;
76447;SDS011;65284;51.040;13.722;2024-03-17T12:16:57;7.32;;;2.00;;
76447;SDS011;65284;51.040;13.722;2024-03-17T12:19:27;6.53;;;1.85;;
76447;SDS011;65284;51.040;13.722;2024-03-17T12:21:53;5.78;;;1.60;;
76447;SDS011;65284;51.040;13.722;2024-03-17T12:24:21;8.60;;;1.77;;
76447;SDS011;65284;51.040;13.722;2024-03-17T12:26:48;4.80;;;1.92;;
76447;SDS011;65284;51.040;13.722;2024-03-17T12:29:24;5.85;;;1.70;;
76447;SDS011;65284;51.040;13.722;2024-03-17T12:31:55;4.57;;;1.75;;
76447;SDS011;65284;51.040;13.722;2024-03-17T12:34:22;4.32;;;1.60;;
76447;SDS011;65284;51.040;13.722;2024-03-17T12:36:50;7.20;;;1.90;;
76447;SDS011;65284;51.040;13.722;2024-03-17T12:39:23;4.40;;;1.63;;
76447;SDS011;65284;51.040;13.722;2024-03-17T12:42:03;5.30;;;1.60;;
76447;SDS011;65284;51.040;13.722;2024-03-17T12:44:32;7.20;;;1.90;;
76447;SDS011;65284;51.040;13.722;2024-03-17T12:46:59;4.95;;;1.42;;
76447;SDS011;65284;51.040;13.722;2024-03-17T12:49:26;5.78;;;1.80;;
76447;SDS011;65284;51.040;13.722;2024-03-17T12:51:53;5.25;;;1.88;;
76447;SDS011;65284;51.040;13.722;2024-03-17T12:54:22;5.43;;;1.80;;
76447;SDS011;65284;51.040;13.722;2024-03-17T12:56:50;4.32;;;1.70;;
76447;SDS011;65284;51.040;13.722;2024-03-17T12:59:38;6.35;;;2.20;;
76447;SDS011;65284;51.040;13.722;2024-03-17T13:02:23;7.18;;;2.08;;
76447;SDS011;65284;51.040;13.722;2024-03-17T13:07:40;7.32;;;1.80;;
76447;SDS011;65284;51.040;13.722;2024-03-17T13:10:05;8.73;;;2.40;;
76447;SDS011;65284;51.040;13.722;2024-03-17T13:12:33;7.82;;;2.22;;
76447;SDS011;65284;51.040;13.722;2024-03-17T13:14:59;10.25;;;2.17;;
76447;SDS011;65284;51.040;13.722;2024-03-17T13:17:25;5.75;;;1.80;;
76447;SDS011;65284;51.040;13.722;2024-03-17T13:19:51;8.48;;;2.03;;
76447;SDS011;65284;51.040;13.722;2024-03-17T13:22:16;5.65;;;2.00;;
76447;SDS011;65284;51.040;13.722;2024-03-17T13:24:42;5.75;;;1.67;;
76447;SDS011;65284;51.040;13.722;2024-03-17T13:27:07;6.43;;;2.58;;
76447;SDS011;65284;51.040;13.722;2024-03-17T13:29:34;7.78;;;1.90;;
76447;SDS011;65284;51.040;13.722;2024-03-17T13:32:03;6.78;;;2.03;;
76447;SDS011;65284;51.040;13.722;2024-03-17T13:34:30;9.13;;;2.13;;
76447;SDS011;65284;51.040;13.722;2024-03-17T13:36:56;7.50;;;2.20;;
76447;SDS011;65284;51.040;13.722;2024-03-17T13:39:22;7.70;;;2.03;;
76447;SDS011;65284;51.040;13.722;2024-03-17T13:41:48;8.10;;;2.20;;
76447;SDS011;65284;51.040;13.722;2024-03-17T13:44:14;8.55;;;2.33;;
76447;SDS011;65284;51.040;13.722;2024-03-17T13:46:40;8.57;;;2.10;;
76447;SDS011;65284;51.040;13.722;2024-03-17T13:49:09;9.38;;;2.47;;
76447;SDS011;65284;51.040;13.722;2024-03-17T13:51:35;7.65;;;2.45;;
76447;SDS011;65284;51.040;13.722;2024-03-17T13:54:00;6.85;;;2.10;;
76447;SDS011;65284;51.040;13.722;2024-03-17T13:56:27;7.35;;;2.50;;
76447;SDS011;65284;51.040;13.722;2024-03-17T13:58:52;11.02;;;2.30;;
76447;SDS011;65284;51.040;13.722;2024-03-17T14:01:18;6.88;;;2.38;;
76447;SDS011;65284;51.040;13.722;2024-03-17T14:03:43;4.68;;;2.03;;
76447;SDS011;65284;51.040;13.722;2024-03-17T14:06:10;7.15;;;2.10;;
76447;SDS011;65284;51.040;13.722;2024-03-17T14:08:35;6.75;;;2.00;;
76447;SDS011;65284;51.040;13.722;2024-03-17T14:11:01;6.22;;;2.45;;
76447;SDS011;65284;51.040;13.722;2024-03-17T14:13:26;6.90;;;2.50;;
76447;SDS011;65284;51.040;13.722;2024-03-17T14:15:55;6.07;;;2.70;;
76447;SDS011;65284;51.040;13.722;2024-03-17T14:18:21;8.57;;;2.40;;
76447;SDS011;65284;51.040;13.722;2024-03-17T14:20:47;8.13;;;2.25;;
76447;SDS011;65284;51.040;13.722;2024-03-17T14:23:12;7.32;;;2.22;;
76447;SDS011;65284;51.040;13.722;2024-03-17T14:25:38;6.95;;;2.50;;
76447;SDS011;65284;51.040;13.722;2024-03-17T14:28:04;6.20;;;2.33;;
76447;SDS011;65284;51.040;13.722;2024-03-17T14:30:30;9.00;;;2.33;;
76447;SDS011;65284;51.040;13.722;2024-03-17T14:32:58;6.30;;;2.60;;
76447;SDS011;65284;51.040;13.722;2024-03-17T14:35:23;9.60;;;2.65;;
76447;SDS011;65284;51.040;13.722;2024-03-17T14:37:49;6.60;;;2.22;;
76447;SDS011;65284;51.040;13.722;2024-03-17T14:40:16;5.80;;;2.60;;
76447;SDS011;65284;51.040;13.722;2024-03-17T14:42:49;8.02;;;2.53;;
76447;SDS011;65284;51.040;13.722;2024-03-17T14:45:16;6.38;;;2.50;;
76447;SDS011;65284;51.040;13.722;2024-03-17T14:47:45;7.90;;;2.55;;
76447;SDS011;65284;51.040;13.722;2024-03-17T14:50:11;6.40;;;2.50;;
76447;SDS011;65284;51.040;13.722;2024-03-17T14:52:37;9.68;;;2.70;;
76447;SDS011;65284;51.040;13.722;2024-03-17T14:55:04;8.75;;;2.42;;
76447;SDS011;65284;51.040;13.722;2024-03-17T14:57:30;7.13;;;2.67;;
76447;SDS011;65284;51.040;13.722;2024-03-17T14:59:56;6.45;;;2.60;;
76447;SDS011;65284;51.040;13.722;2024-03-17T15:02:21;8.63;;;2.95;;
76447;SDS011;65284;51.040;13.722;2024-03-17T15:04:49;6.53;;;2.47;;